Huvudsida
METAR-TAF:

METAR-TAF

Flygplatser :

Kristianstad Österlen Airport

Kristianstad, Sverige

latitud: 55-55N, longitud: 014-05E, höjd: 23 m

Aktuellt väderrapport

Denna rapport gjordes för 18 minuter sedan, klockan 13:50 UTC
Vind 15 kt från väst
Temperatur 22°C
Fuktighet 41%
Tryck 1015 hPa
Sikt 10 km eller mer

METAR: ESMK 191350Z AUTO 27015KT 9999 SCT051/// 22/08 Q1015

Tid: 16:08 (14:08 UTC)

Väderprognos

Denna rapport gjordes för 42 minuter sedan, klockan 13:26 UTC
Prognos gäller från 19 kl. 14 UTC till 19 kl. 19 UTC
Vind 15 kt från väst
Sikt 10 km eller mer
Spridda moln på en höjd av 4000 ft
Temporärt
från 19 kl. 14 UTC till 19 kl. 18 UTC
Vind 18 kt från väst i byarna ända upp till 30 kt

TAF: ESMK 191326Z 1914/1919 27015KT 9999 SCT040 TEMPO 1914/1918 28018G30KT

Aktuella väderrapporter och prognoser från 4000 flygplatser (METAR- och TAF-rapporter).

De tillgängliga stationerna syns som gula och röda prickar på kartan.

För musen över prickarna för att se namnen på stationerna.

Klicka sedan för att få väderrapporter och prognoser.

För att ändra kartan: Klicka på de gröna knapparna med ett svart kors på för att zooma in; den gröna knappen med ett streck på för att zooma ut; eller på de gröna pilarna för angränsande kartor.


METAR-TAF: